Hither Plains, New York
Current Conditions -  °F | °C
As of 3:25 AM on Monday 24 Nov 2014 (Local Time) from KGON Reporting Station
Light Rain Light Rain  
Wind Chill: 56°   Ceiling: 2900
Heat Index: 56°   Visibility: 3mi
Dew Point: 55°   Wind: 23mph
Humidity: 97%   Direction: 130°SE
Pressure: 29.94"   Gusts: 28mph
Location:  41.0458°N, 71.9469°W
Report Text: KGON 240825Z AUTO 13020G24KT 3SM -RA BR BKN029 BKN037 OVC050 13/13 A2994 RMK AO2 RAB07 P0000 T01330128
Loading
Personal Weather Stations






























Interactive Weather Map New forecast layout! Learn more

10-Day Weather Forecast

Advertisements
Track Severe Weather on mobile